Time;durP1;ratioP1;P1;durP2;ratioP2;P2;SDS_P1;SDS_P2;PMS_P1;PMS_P2;Temp;Humidity;BMP_temperature;BMP_pressure;BME280_temperature;BME280_humidity;BME280_pressure;Samples;Min_cycle;Max_cycle;Signal;HPM_P1;HPM_P2
2024/01/29 00:00:19;;;;;;;9.07;3.10;;;5.70;99.90;;;;;;5002153;28;20048;-69
2024/01/29 00:02:45;;;;;;;7.80;2.90;;;5.60;99.90;;;;;;5008266;28;20119;-69
2024/01/29 00:05:12;;;;;;;9.20;3.30;;;5.60;99.90;;;;;;5025773;28;20351;-68
2024/01/29 00:07:38;;;;;;;6.47;3.15;;;5.60;99.90;;;;;;5024154;28;20037;-68
2024/01/29 00:10:05;;;;;;;6.85;3.20;;;5.60;99.90;;;;;;5024230;28;20053;-69
2024/01/29 00:12:31;;;;;;;8.10;2.90;;;5.60;99.90;;;;;;5023841;28;20049;-68
2024/01/29 00:14:57;;;;;;;8.68;3.10;;;5.60;99.90;;;;;;5038374;28;20045;-68
2024/01/29 00:17:24;;;;;;;8.00;3.05;;;5.60;99.90;;;;;;5007325;28;20041;-68
2024/01/29 00:19:49;;;;;;;9.13;3.50;;;5.50;99.90;;;;;;5024732;28;20050;-69
2024/01/29 00:22:15;;;;;;;6.32;2.88;;;5.50;99.90;;;;;;5050399;28;20082;-70
2024/01/29 00:24:41;;;;;;;8.48;3.08;;;5.50;99.90;;;;;;5006148;28;20128;-70
2024/01/29 00:27:07;;;;;;;8.38;3.13;;;5.70;99.90;;;;;;5007368;28;20049;-69
2024/01/29 00:29:33;;;;;;;6.85;2.83;;;5.50;99.90;;;;;;5007840;28;20033;-67
2024/01/29 00:31:58;;;;;;;9.25;3.40;;;5.50;99.90;;;;;;5023894;28;20421;-68
2024/01/29 00:34:24;;;;;;;7.28;2.63;;;5.50;99.90;;;;;;5023442;28;20045;-68
2024/01/29 00:36:53;;;;;;;7.15;2.92;;;5.50;99.90;;;;;;5021427;28;20487;-67
2024/01/29 00:39:19;;;;;;;6.95;2.85;;;5.40;99.90;;;;;;5022941;28;20045;-69
2024/01/29 00:41:44;;;;;;;5.63;2.88;;;5.40;99.90;;;;;;5023634;28;20038;-69
2024/01/29 00:44:10;;;;;;;10.15;3.10;;;5.40;99.90;;;;;;5023549;28;20048;-69
2024/01/29 00:46:39;;;;;;;8.77;3.35;;;5.40;99.90;;;;;;5023543;28;20127;-69
2024/01/29 00:49:04;;;;;;;7.63;3.28;;;5.40;99.90;;;;;;5006470;28;20055;-68
2024/01/29 00:51:30;;;;;;;7.57;3.17;;;5.40;99.90;;;;;;5023899;28;20131;-69
2024/01/29 00:53:56;;;;;;;10.02;3.80;;;5.30;99.90;;;;;;5023369;28;20053;-70
2024/01/29 00:56:21;;;;;;;10.98;3.53;;;5.30;99.90;;;;;;5023805;28;20532;-67
2024/01/29 00:58:47;;;;;;;7.95;3.25;;;5.30;99.90;;;;;;5023342;28;20431;-67
2024/01/29 01:01:13;;;;;;;7.68;3.17;;;5.30;99.90;;;;;;5022093;28;20080;-69
2024/01/29 01:03:39;;;;;;;6.93;2.88;;;5.30;99.90;;;;;;5023186;28;20486;-68
2024/01/29 01:06:04;;;;;;;6.93;3.05;;;5.30;99.90;;;;;;5023249;28;20051;-69
2024/01/29 01:08:30;;;;;;;8.25;3.15;;;5.30;99.90;;;;;;5021583;28;20052;-69
2024/01/29 01:10:56;;;;;;;6.93;3.22;;;5.30;99.90;;;;;;5022787;28;20069;-69
2024/01/29 01:13:21;;;;;;;9.60;3.53;;;6.00;99.90;;;;;;5022320;28;20045;-69
2024/01/29 01:15:47;;;;;;;8.13;3.25;;;5.30;99.90;;;;;;5023552;28;20041;-69
2024/01/29 01:18:13;;;;;;;12.27;3.50;;;5.80;99.90;;;;;;5022285;28;20049;-69
2024/01/29 01:20:39;;;;;;;8.48;3.65;;;5.20;99.90;;;;;;5022904;28;20118;-69
2024/01/29 01:23:05;;;;;;;7.93;3.25;;;5.20;99.90;;;;;;5019664;28;20481;-69
2024/01/29 01:25:30;;;;;;;7.38;3.38;;;5.20;99.90;;;;;;5021667;28;20038;-69
2024/01/29 01:27:56;;;;;;;6.43;2.75;;;5.10;99.90;;;;;;5021186;28;20033;-69
2024/01/29 01:30:22;;;;;;;8.80;3.38;;;5.20;99.90;;;;;;5022259;28;20053;-69
2024/01/29 01:32:48;;;;;;;8.45;3.47;;;5.10;99.90;;;;;;5006408;28;20493;-69
2024/01/29 01:35:14;;;;;;;7.20;3.20;;;5.20;99.90;;;;;;5006826;28;20131;-69
2024/01/29 01:37:40;;;;;;;8.45;2.95;;;5.10;99.90;;;;;;5005016;28;20045;-69
2024/01/29 01:40:07;;;;;;;10.23;3.67;;;5.10;99.90;;;;;;5005654;28;20045;-69
2024/01/29 01:42:33;;;;;;;13.20;3.70;;;5.10;99.90;;;;;;5006478;28;20057;-69
2024/01/29 01:44:59;;;;;;;8.60;3.33;;;5.00;99.90;;;;;;5023041;28;20044;-68
2024/01/29 01:47:25;;;;;;;9.00;3.72;;;5.00;99.90;;;;;;5022269;28;20080;-69
2024/01/29 01:49:51;;;;;;;7.40;2.92;;;5.60;99.90;;;;;;5022216;28;20140;-69
2024/01/29 01:52:18;;;;;;;10.85;3.28;;;5.00;99.90;;;;;;5020903;28;20049;-68
2024/01/29 01:54:44;;;;;;;8.90;3.38;;;5.10;99.90;;;;;;5003379;28;20092;-69
2024/01/29 01:57:10;;;;;;;10.43;3.60;;;5.00;99.90;;;;;;5022549;28;20076;-68
2024/01/29 01:59:38;;;;;;;8.60;3.38;;;4.90;99.90;;;;;;5022447;28;20049;-69
2024/01/29 02:02:05;;;;;;;7.88;3.70;;;4.90;99.90;;;;;;5021731;28;20085;-68
2024/01/29 02:04:30;;;;;;;7.80;3.55;;;5.00;99.90;;;;;;5006901;28;20041;-68
2024/01/29 02:06:57;;;;;;;7.35;3.40;;;4.90;99.90;;;;;;5034409;28;20049;-67
2024/01/29 02:09:24;;;;;;;7.50;3.67;;;4.90;99.90;;;;;;5033064;28;20142;-68
2024/01/29 02:11:50;;;;;;;7.30;3.72;;;4.80;99.90;;;;;;5014677;28;20065;-67
2024/01/29 02:14:16;;;;;;;10.15;3.60;;;4.80;99.90;;;;;;5032052;28;20050;-69
2024/01/29 02:16:42;;;;;;;7.25;3.20;;;4.80;99.90;;;;;;5025415;28;20041;-69
2024/01/29 02:19:17;;;;;;;15.60;3.80;;;4.80;99.90;;;;;;5022289;28;20091;-69
2024/01/29 02:21:44;;;;;;;7.78;3.50;;;4.80;99.90;;;;;;5021575;28;20045;-69
2024/01/29 02:24:10;;;;;;;7.88;3.80;;;4.70;99.90;;;;;;5017065;28;20081;-69
2024/01/29 02:26:35;;;;;;;7.88;3.50;;;4.70;99.90;;;;;;5020846;28;20582;-68
2024/01/29 02:29:01;;;;;;;13.38;3.47;;;4.70;99.90;;;;;;5020565;28;20059;-68
2024/01/29 02:31:27;;;;;;;10.70;3.83;;;4.70;99.90;;;;;;5002715;28;20040;-69
2024/01/29 02:33:53;;;;;;;7.18;3.53;;;4.70;99.90;;;;;;5021657;28;20033;-68
2024/01/29 02:36:19;;;;;;;6.70;3.38;;;4.70;99.90;;;;;;5021465;28;20612;-70
2024/01/29 02:38:44;;;;;;;8.23;3.22;;;4.70;99.90;;;;;;5005465;28;20042;-70
2024/01/29 02:41:10;;;;;;;9.68;4.00;;;4.60;99.90;;;;;;5005769;28;20639;-70
2024/01/29 02:43:36;;;;;;;7.80;3.45;;;4.60;99.90;;;;;;5005391;28;20057;-70
2024/01/29 02:46:02;;;;;;;9.20;3.80;;;5.20;99.90;;;;;;5021642;28;20115;-67
2024/01/29 02:48:27;;;;;;;11.82;4.15;;;4.60;99.90;;;;;;5005811;28;20773;-69
2024/01/29 02:50:53;;;;;;;8.88;3.53;;;4.60;99.90;;;;;;5021534;28;20071;-69
2024/01/29 02:53:19;;;;;;;7.50;3.70;;;4.50;99.90;;;;;;5021028;28;20733;-69
2024/01/29 02:55:45;;;;;;;8.52;3.97;;;4.80;99.90;;;;;;5021562;28;20099;-69
2024/01/29 02:58:11;;;;;;;8.68;3.97;;;4.50;99.90;;;;;;5021049;28;20057;-68
2024/01/29 03:00:37;;;;;;;8.90;3.70;;;4.50;99.90;;;;;;5021222;28;20060;-69
2024/01/29 03:03:02;;;;;;;9.38;3.60;;;4.50;99.90;;;;;;5021342;28;20049;-69
2024/01/29 03:05:28;;;;;;;9.63;3.85;;;4.50;99.90;;;;;;5005207;28;20033;-68
2024/01/29 03:07:54;;;;;;;7.72;3.30;;;4.60;99.90;;;;;;5021544;28;20041;-68
2024/01/29 03:10:23;;;;;;;10.85;3.60;;;4.50;99.90;;;;;;5020327;28;20514;-69
2024/01/29 03:12:49;;;;;;;10.98;4.28;;;4.50;99.90;;;;;;5021144;28;20037;-68
2024/01/29 03:15:14;;;;;;;10.95;3.38;;;4.40;99.90;;;;;;5021595;28;20049;-69
2024/01/29 03:17:40;;;;;;;8.45;3.85;;;4.40;99.90;;;;;;5022486;28;20196;-68
2024/01/29 03:20:06;;;;;;;8.95;3.80;;;4.60;99.90;;;;;;5021811;28;20049;-68
2024/01/29 03:22:32;;;;;;;9.18;4.05;;;4.40;99.90;;;;;;5019595;28;20498;-69
2024/01/29 03:24:58;;;;;;;9.95;3.45;;;4.40;99.90;;;;;;5019933;28;20040;-68
2024/01/29 03:27:23;;;;;;;7.80;3.67;;;4.30;99.90;;;;;;5021268;28;20053;-69
2024/01/29 03:29:49;;;;;;;11.50;4.22;;;4.30;99.90;;;;;;5020667;28;20403;-68
2024/01/29 03:32:16;;;;;;;7.45;3.80;;;4.30;99.90;;;;;;5022517;28;20578;-68
2024/01/29 03:34:44;;;;;;;8.23;3.40;;;4.40;99.90;;;;;;5025292;28;20478;-69
2024/01/29 03:37:12;;;;;;;8.15;3.95;;;4.30;99.90;;;;;;5009113;28;20390;-69
2024/01/29 03:39:38;;;;;;;10.07;4.18;;;4.30;99.90;;;;;;5026156;28;20044;-68
2024/01/29 03:42:04;;;;;;;10.20;4.22;;;4.30;99.90;;;;;;5024487;28;20153;-68
2024/01/29 03:44:30;;;;;;;7.78;3.90;;;4.30;99.90;;;;;;5025111;28;20132;-68
2024/01/29 03:46:56;;;;;;;8.63;3.50;;;4.30;99.90;;;;;;5025641;28;20389;-69
2024/01/29 03:49:21;;;;;;;9.52;4.20;;;4.30;99.90;;;;;;5025377;28;20140;-68
2024/01/29 03:51:47;;;;;;;11.20;4.25;;;4.50;99.90;;;;;;5024373;28;20731;-69
2024/01/29 03:54:13;;;;;;;10.05;3.65;;;4.30;99.90;;;;;;5026835;28;20045;-68
2024/01/29 03:56:38;;;;;;;8.15;3.63;;;4.90;99.90;;;;;;5026186;28;20049;-69
2024/01/29 03:59:04;;;;;;;10.25;4.25;;;4.30;99.90;;;;;;5024585;28;20211;-69
2024/01/29 04:01:30;;;;;;;7.45;4.10;;;4.30;99.90;;;;;;5024215;28;20041;-68
2024/01/29 04:03:56;;;;;;;9.68;3.85;;;4.30;99.90;;;;;;5006414;28;20136;-69
2024/01/29 04:06:22;;;;;;;8.88;4.07;;;4.30;99.90;;;;;;5008324;28;20102;-69
2024/01/29 04:08:47;;;;;;;9.57;4.05;;;4.30;99.90;;;;;;5023711;28;20514;-70
2024/01/29 04:11:13;;;;;;;12.13;4.53;;;4.30;99.90;;;;;;5024357;28;20689;-69
2024/01/29 04:13:39;;;;;;;8.63;3.90;;;4.70;99.90;;;;;;5008071;28;20080;-69
2024/01/29 04:16:08;;;;;;;10.80;3.97;;;4.20;99.90;;;;;;5025142;28;20053;-69
2024/01/29 04:18:33;;;;;;;9.85;4.18;;;4.20;99.90;;;;;;5007137;28;20045;-69
2024/01/29 04:20:59;;;;;;;9.32;4.20;;;4.40;99.90;;;;;;5024608;28;20202;-70
2024/01/29 04:23:25;;;;;;;8.95;3.85;;;4.20;99.90;;;;;;5024002;28;20072;-66
2024/01/29 04:25:51;;;;;;;10.32;4.20;;;4.10;99.90;;;;;;5023410;28;20033;-67
2024/01/29 04:28:16;;;;;;;10.80;4.13;;;4.10;99.90;;;;;;5023486;28;20224;-67
2024/01/29 04:30:42;;;;;;;8.43;3.90;;;4.10;99.90;;;;;;5023701;28;20076;-68
2024/01/29 04:33:08;;;;;;;8.80;4.05;;;4.10;99.90;;;;;;5024936;28;20480;-68
2024/01/29 04:35:35;;;;;;;11.68;4.72;;;4.10;99.90;;;;;;5025415;28;20133;-68
2024/01/29 04:38:01;;;;;;;8.70;4.25;;;4.10;99.90;;;;;;5023180;28;20049;-68
2024/01/29 04:40:26;;;;;;;9.07;4.18;;;4.30;99.90;;;;;;5023365;28;20049;-68
2024/01/29 04:42:52;;;;;;;10.55;4.00;;;4.10;99.90;;;;;;5021876;28;20124;-68
2024/01/29 04:45:18;;;;;;;11.95;4.35;;;4.00;99.90;;;;;;5007478;28;20046;-67
2024/01/29 04:47:44;;;;;;;9.68;4.43;;;4.00;99.90;;;;;;5021904;28;20037;-68
2024/01/29 04:50:10;;;;;;;8.50;4.10;;;4.00;99.90;;;;;;5021002;28;20116;-69
2024/01/29 04:52:35;;;;;;;9.43;4.45;;;3.90;99.90;;;;;;5006585;28;20751;-68
2024/01/29 04:55:01;;;;;;;9.15;4.13;;;4.00;99.90;;;;;;5023235;28;20045;-68
2024/01/29 04:57:27;;;;;;;11.52;4.25;;;3.90;99.90;;;;;;5023689;28;20053;-68
2024/01/29 04:59:52;;;;;;;9.68;4.93;;;3.90;99.90;;;;;;5022995;28;20141;-68
2024/01/29 05:02:18;;;;;;;10.32;4.90;;;3.90;99.90;;;;;;5006647;28;20046;-68
2024/01/29 05:04:44;;;;;;;10.52;4.45;;;3.90;99.90;;;;;;5023552;28;20052;-69
2024/01/29 05:07:10;;;;;;;9.00;4.88;;;3.90;99.90;;;;;;5004923;28;20109;-68
2024/01/29 05:09:35;;;;;;;9.45;4.15;;;3.90;99.90;;;;;;5022772;28;20049;-68
2024/01/29 05:12:01;;;;;;;8.77;4.32;;;4.10;99.90;;;;;;5019150;28;20061;-68
2024/01/29 05:14:28;;;;;;;8.43;4.38;;;3.90;99.90;;;;;;5021575;28;20041;-69
2024/01/29 05:16:53;;;;;;;10.07;4.85;;;4.00;99.90;;;;;;5023338;28;20893;-69
2024/01/29 05:19:19;;;;;;;9.65;4.70;;;3.90;99.90;;;;;;5002383;28;20076;-69
2024/01/29 05:21:47;;;;;;;10.55;4.78;;;3.90;99.90;;;;;;5003715;28;20144;-69
2024/01/29 05:24:13;;;;;;;11.32;4.82;;;3.90;99.90;;;;;;5021223;28;20049;-68
2024/01/29 05:26:39;;;;;;;11.10;5.05;;;3.90;99.90;;;;;;5022408;28;20041;-69
2024/01/29 05:29:04;;;;;;;9.38;4.63;;;3.90;99.90;;;;;;5021607;28;20114;-69
2024/01/29 05:31:30;;;;;;;10.48;4.50;;;3.90;99.90;;;;;;5030020;28;20103;-69
2024/01/29 05:33:56;;;;;;;9.98;4.45;;;3.90;99.90;;;;;;5024041;28;20046;-69
2024/01/29 05:36:22;;;;;;;12.05;5.35;;;3.90;99.90;;;;;;5023544;28;20045;-69
2024/01/29 05:38:48;;;;;;;11.15;5.00;;;3.90;99.90;;;;;;5023104;28;20406;-69
2024/01/29 05:41:13;;;;;;;8.95;4.90;;;3.90;99.90;;;;;;5005328;28;20086;-69
2024/01/29 05:43:40;;;;;;;9.82;4.65;;;3.90;99.90;;;;;;5023586;28;20565;-69
2024/01/29 05:46:06;;;;;;;9.95;5.03;;;3.90;99.90;;;;;;5019586;28;20041;-69
2024/01/29 05:48:32;;;;;;;12.73;5.13;;;3.90;99.90;;;;;;5038664;28;20049;-70
2024/01/29 05:50:57;;;;;;;8.85;4.78;;;4.10;99.90;;;;;;5020721;28;20196;-70
2024/01/29 05:53:23;;;;;;;8.95;5.20;;;3.90;99.90;;;;;;5006203;28;20052;-70
2024/01/29 05:55:49;;;;;;;9.63;4.90;;;3.90;99.90;;;;;;5019902;28;20088;-70
2024/01/29 05:58:14;;;;;;;11.32;4.63;;;3.90;99.90;;;;;;5019384;28;20060;-69
2024/01/29 06:00:40;;;;;;;10.10;4.65;;;3.90;99.90;;;;;;5018576;28;20412;-70
2024/01/29 06:03:06;;;;;;;9.60;4.95;;;4.10;99.90;;;;;;5022236;28;20136;-69
2024/01/29 06:05:32;;;;;;;10.38;4.80;;;4.00;99.90;;;;;;5005131;28;20046;-69
2024/01/29 06:07:57;;;;;;;9.00;4.80;;;3.90;99.90;;;;;;5021622;28;20037;-67
2024/01/29 06:10:23;;;;;;;9.32;4.93;;;3.90;99.90;;;;;;5019635;28;20050;-68
2024/01/29 06:12:49;;;;;;;10.40;5.25;;;3.90;99.90;;;;;;5005478;28;20048;-67
2024/01/29 06:15:15;;;;;;;10.05;4.65;;;3.90;99.90;;;;;;5020737;28;20053;-68
2024/01/29 06:17:41;;;;;;;10.50;5.07;;;3.90;99.90;;;;;;5023427;28;20449;-68
2024/01/29 06:20:07;;;;;;;11.90;5.63;;;4.00;99.90;;;;;;5011274;28;20056;-68
2024/01/29 06:22:33;;;;;;;9.48;5.20;;;3.90;99.90;;;;;;5013536;28;20061;-69
2024/01/29 06:24:59;;;;;;;11.43;5.30;;;4.00;99.90;;;;;;5010955;28;20044;-69
2024/01/29 06:27:24;;;;;;;11.05;5.18;;;4.00;99.90;;;;;;4996140;28;20854;-69
2024/01/29 06:29:51;;;;;;;10.50;5.10;;;4.00;99.90;;;;;;5012082;28;20124;-69
2024/01/29 06:32:16;;;;;;;10.00;5.13;;;4.30;99.90;;;;;;5035523;28;20132;-68
2024/01/29 06:34:42;;;;;;;11.40;5.50;;;4.00;99.90;;;;;;5008678;28;20041;-68
2024/01/29 06:37:08;;;;;;;13.50;5.15;;;4.80;99.90;;;;;;5008381;28;20041;-68
2024/01/29 06:39:34;;;;;;;10.00;4.97;;;3.90;99.90;;;;;;5009789;28;21209;-68
2024/01/29 06:42:00;;;;;;;10.23;5.20;;;4.00;99.90;;;;;;5000874;28;20169;-68
2024/01/29 06:44:26;;;;;;;13.30;5.38;;;4.00;99.90;;;;;;4994568;28;20044;-68
2024/01/29 06:46:51;;;;;;;9.95;5.28;;;4.00;99.90;;;;;;5007948;28;20050;-68
2024/01/29 06:49:30;;;;;;;9.40;5.32;;;3.90;99.90;;;;;;5009744;28;20704;-69
2024/01/29 06:51:56;;;;;;;10.77;5.32;;;3.90;99.90;;;;;;5008799;28;20049;-68
2024/01/29 06:54:22;;;;;;;8.60;4.85;;;4.00;99.90;;;;;;5007212;28;20037;-68
2024/01/29 06:56:48;;;;;;;11.98;5.13;;;3.90;99.90;;;;;;5012794;28;20041;-68
2024/01/29 06:59:14;;;;;;;11.45;5.28;;;4.50;99.90;;;;;;5012734;28;20087;-68
2024/01/29 07:01:40;;;;;;;12.95;5.47;;;4.00;99.90;;;;;;5014042;28;20042;-67
2024/01/29 07:04:06;;;;;;;13.02;5.82;;;4.00;99.90;;;;;;5013956;28;20052;-68
2024/01/29 07:06:31;;;;;;;10.20;5.47;;;3.90;99.90;;;;;;5014384;28;20072;-68
2024/01/29 07:08:57;;;;;;;14.43;5.80;;;3.90;99.90;;;;;;5014776;28;20034;-68
2024/01/29 07:11:23;;;;;;;12.25;5.65;;;3.90;99.90;;;;;;5014823;28;22470;-68
2024/01/29 07:13:49;;;;;;;10.13;5.63;;;3.90;99.90;;;;;;5013395;28;20052;-68
2024/01/29 07:16:15;;;;;;;11.38;5.90;;;3.90;99.90;;;;;;5015060;28;20159;-68
2024/01/29 07:18:41;;;;;;;11.90;5.95;;;4.10;99.90;;;;;;5015036;28;20060;-71
2024/01/29 07:21:09;;;;;;;11.90;5.78;;;4.10;99.90;;;;;;5010231;28;20581;-68
2024/01/29 07:23:35;;;;;;;11.23;5.43;;;3.90;99.90;;;;;;5018424;28;20056;-68
2024/01/29 07:26:01;;;;;;;11.55;5.22;;;3.90;99.90;;;;;;5012484;28;20038;-70
2024/01/29 07:28:26;;;;;;;15.77;6.32;;;3.90;99.90;;;;;;4995285;28;20407;-68
2024/01/29 07:30:52;;;;;;;14.98;6.45;;;3.90;99.90;;;;;;5004878;28;20041;-69
2024/01/29 07:33:18;;;;;;;13.02;5.63;;;3.90;99.90;;;;;;5009558;28;20065;-69
2024/01/29 07:35:43;;;;;;;12.23;5.65;;;3.90;99.90;;;;;;5016475;28;20491;-69
2024/01/29 07:38:09;;;;;;;12.98;5.72;;;4.00;99.90;;;;;;5012931;28;20046;-68
2024/01/29 07:40:35;;;;;;;13.45;6.40;;;3.90;99.90;;;;;;5016698;28;20195;-69
2024/01/29 07:43:00;;;;;;;10.88;5.85;;;3.90;99.90;;;;;;5016127;28;20106;-69
2024/01/29 07:45:26;;;;;;;11.77;6.20;;;3.90;99.90;;;;;;5005152;28;20176;-68
2024/01/29 07:47:52;;;;;;;12.25;5.78;;;3.90;99.90;;;;;;5017279;28;20042;-68
2024/01/29 07:50:18;;;;;;;11.13;5.65;;;3.90;99.90;;;;;;5013299;28;20057;-68
2024/01/29 07:52:44;;;;;;;10.18;5.72;;;3.90;99.90;;;;;;5011628;28;20042;-69
2024/01/29 07:55:10;;;;;;;12.18;6.32;;;3.90;99.90;;;;;;5017685;28;20407;-69
2024/01/29 07:57:39;;;;;;;10.48;5.88;;;3.90;99.90;;;;;;5018748;28;20492;-68
2024/01/29 08:00:06;;;;;;;11.40;6.20;;;4.00;99.90;;;;;;5015021;28;20065;-68
2024/01/29 08:02:31;;;;;;;11.27;6.38;;;4.00;99.90;;;;;;5013772;28;20045;-69
2024/01/29 08:04:57;;;;;;;13.13;6.03;;;4.20;99.90;;;;;;5013397;28;20111;-69
2024/01/29 08:07:23;;;;;;;10.90;5.93;;;4.00;99.90;;;;;;5019545;28;20047;-68
2024/01/29 08:09:49;;;;;;;11.02;6.32;;;4.00;99.90;;;;;;5015494;28;21071;-69
2024/01/29 08:12:15;;;;;;;12.88;6.10;;;4.00;99.90;;;;;;5001966;28;20100;-69
2024/01/29 08:14:40;;;;;;;12.13;5.80;;;4.00;99.90;;;;;;5016313;28;20123;-69
2024/01/29 08:17:06;;;;;;;11.68;5.68;;;4.00;99.90;;;;;;4998555;28;20454;-69
2024/01/29 08:19:32;;;;;;;15.55;6.18;;;4.10;99.90;;;;;;4998274;28;20042;-69
2024/01/29 08:21:58;;;;;;;12.45;6.20;;;4.10;99.90;;;;;;5016007;28;20577;-69
2024/01/29 08:24:24;;;;;;;14.98;7.15;;;4.10;99.90;;;;;;5013945;28;20059;-68
2024/01/29 08:26:52;;;;;;;11.73;6.22;;;4.10;99.90;;;;;;5014501;28;20512;-69
2024/01/29 08:29:18;;;;;;;13.32;6.50;;;4.20;99.90;;;;;;5006598;28;20041;-69
2024/01/29 08:31:43;;;;;;;14.07;6.40;;;4.20;99.90;;;;;;5012370;28;21974;-68
2024/01/29 08:34:09;;;;;;;10.65;6.00;;;4.50;99.90;;;;;;5012758;28;20041;-69
2024/01/29 08:36:35;;;;;;;11.98;6.53;;;4.20;99.90;;;;;;4997907;28;20049;-68
2024/01/29 08:39:01;;;;;;;11.93;6.38;;;4.30;99.90;;;;;;5017613;28;20140;-70
2024/01/29 08:41:27;;;;;;;11.15;5.90;;;4.30;99.90;;;;;;5033645;28;20502;-69
2024/01/29 08:43:53;;;;;;;14.38;6.57;;;4.30;99.90;;;;;;5018554;28;20048;-68
2024/01/29 08:46:19;;;;;;;14.23;5.95;;;4.40;99.90;;;;;;5012381;28;20045;-69
2024/01/29 08:48:45;;;;;;;10.98;6.20;;;4.30;99.90;;;;;;5012818;28;20110;-68
2024/01/29 08:51:10;;;;;;;10.70;6.05;;;4.40;99.90;;;;;;5013127;28;20719;-68
2024/01/29 08:53:36;;;;;;;11.55;6.32;;;4.30;99.90;;;;;;5013039;28;20140;-68
2024/01/29 08:56:07;;;;;;;12.30;6.93;;;4.40;99.90;;;;;;5013693;28;21414;-69
2024/01/29 08:58:33;;;;;;;13.20;7.15;;;4.40;99.90;;;;;;5028827;28;20443;-68
2024/01/29 09:00:59;;;;;;;13.27;6.93;;;4.40;99.90;;;;;;5014556;28;20056;-70
2024/01/29 09:03:27;;;;;;;14.63;6.95;;;4.40;99.90;;;;;;5018329;28;20053;-68
2024/01/29 09:05:53;;;;;;;12.68;6.72;;;4.40;99.90;;;;;;4998424;28;20107;-69
2024/01/29 09:08:19;;;;;;;10.70;6.95;;;4.50;99.90;;;;;;5016131;28;20053;-69
2024/01/29 09:10:45;;;;;;;12.38;6.85;;;4.50;99.90;;;;;;5033995;28;20042;-69
2024/01/29 09:13:11;;;;;;;11.73;6.13;;;4.60;99.90;;;;;;5014004;28;20608;-69
2024/01/29 09:15:38;;;;;;;10.40;6.75;;;4.50;99.90;;;;;;5015688;28;20084;-69
2024/01/29 09:18:04;;;;;;;13.00;7.50;;;4.50;99.90;;;;;;5009560;28;20390;-69
2024/01/29 09:20:30;;;;;;;13.85;7.20;;;4.60;99.90;;;;;;5013440;28;20677;-68
2024/01/29 09:22:58;;;;;;;11.57;6.82;;;4.70;99.90;;;;;;5019215;28;20140;-69
2024/01/29 09:25:24;;;;;;;11.00;6.85;;;4.60;99.90;;;;;;5000791;28;20406;-69
2024/01/29 09:27:49;;;;;;;14.25;7.47;;;4.60;99.90;;;;;;5015411;28;20045;-69
2024/01/29 09:30:15;;;;;;;13.75;7.15;;;4.70;99.90;;;;;;5012281;28;20796;-69
2024/01/29 09:32:41;;;;;;;14.65;7.00;;;4.70;99.90;;;;;;5017013;28;20098;-69
2024/01/29 09:35:08;;;;;;;14.48;7.13;;;4.70;99.90;;;;;;5011714;28;20091;-69
2024/01/29 09:37:34;;;;;;;12.38;7.32;;;4.70;99.90;;;;;;5002831;28;20207;-68
2024/01/29 09:40:00;;;;;;;15.48;7.50;;;4.80;99.90;;;;;;5013174;28;20128;-68
2024/01/29 09:42:29;;;;;;;12.65;7.20;;;4.80;99.90;;;;;;5014882;28;20050;-68
2024/01/29 09:44:56;;;;;;;13.88;6.55;;;4.80;99.90;;;;;;5011519;28;20037;-69
2024/01/29 09:47:23;;;;;;;12.57;6.57;;;4.80;99.90;;;;;;5012725;28;20056;-69
2024/01/29 09:49:49;;;;;;;14.40;8.10;;;4.80;99.90;;;;;;5004764;28;20099;-69
2024/01/29 09:52:17;;;;;;;14.43;7.30;;;4.90;99.90;;;;;;4992621;28;20084;-69
2024/01/29 09:54:46;;;;;;;15.20;7.78;;;4.90;99.90;;;;;;5014586;28;20127;-68
2024/01/29 09:57:12;;;;;;;14.85;8.02;;;4.90;99.90;;;;;;5013769;28;20041;-69
2024/01/29 09:59:40;;;;;;;16.23;8.63;;;4.90;99.90;;;;;;5015135;28;20048;-68
2024/01/29 10:02:07;;;;;;;17.83;7.95;;;5.00;99.90;;;;;;5000649;28;20080;-68
2024/01/29 10:04:32;;;;;;;16.52;8.43;;;5.00;99.90;;;;;;5001770;28;20045;-69
2024/01/29 10:06:58;;;;;;;12.85;7.78;;;5.10;99.90;;;;;;5013364;28;20042;-69
2024/01/29 10:09:29;;;;;;;15.23;8.00;;;5.70;99.90;;;;;;5015209;28;20149;-69
2024/01/29 10:11:54;;;;;;;16.77;7.85;;;5.10;99.90;;;;;;5010807;28;20048;-69
2024/01/29 10:14:21;;;;;;;20.23;8.07;;;5.20;99.90;;;;;;5015537;28;20041;-69
2024/01/29 10:16:48;;;;;;;14.95;7.80;;;5.20;99.90;;;;;;5012777;28;20092;-69
2024/01/29 10:19:14;;;;;;;15.38;7.55;;;5.30;99.90;;;;;;5014698;28;20068;-69
2024/01/29 10:21:43;;;;;;;18.17;8.30;;;5.30;99.90;;;;;;5001063;28;20490;-68
2024/01/29 10:24:16;;;;;;;17.55;8.18;;;5.40;99.90;;;;;;5016895;28;20549;-70
2024/01/29 10:26:43;;;;;;;15.43;8.23;;;5.80;99.90;;;;;;5038016;28;20049;-70
2024/01/29 10:29:10;;;;;;;15.18;8.80;;;6.20;99.90;;;;;;5008156;28;20669;-70
2024/01/29 10:31:36;;;;;;;13.27;7.53;;;5.80;99.90;;;;;;4999946;28;20065;-70
2024/01/29 10:34:03;;;;;;;14.82;7.97;;;5.50;99.90;;;;;;4996253;28;20045;-70
2024/01/29 10:36:29;;;;;;;15.02;8.65;;;5.60;99.90;;;;;;5015001;28;20045;-70
2024/01/29 10:38:57;;;;;;;17.38;8.93;;;5.60;99.90;;;;;;5011476;28;20060;-70
2024/01/29 10:41:25;;;;;;;14.93;8.43;;;5.70;99.90;;;;;;5006861;28;20938;-71
2024/01/29 10:43:54;;;;;;;16.63;8.60;;;5.80;99.90;;;;;;5009943;28;20042;-71
2024/01/29 10:46:22;;;;;;;14.65;8.80;;;5.80;99.90;;;;;;5011886;28;20099;-70
2024/01/29 10:48:55;;;;;;;15.40;8.50;;;5.80;99.90;;;;;;5029875;28;20545;-70
2024/01/29 10:51:22;;;;;;;17.00;8.70;;;6.60;99.90;;;;;;5001749;28;20176;-70
2024/01/29 10:53:48;;;;;;;15.93;8.32;;;5.90;99.90;;;;;;5014586;28;20045;-69
2024/01/29 10:56:16;;;;;;;16.90;8.68;;;5.90;99.90;;;;;;5017280;28;20124;-69
2024/01/29 10:58:42;;;;;;;15.55;8.93;;;5.90;99.90;;;;;;5003658;28;20061;-69
2024/01/29 11:01:10;;;;;;;15.85;8.45;;;6.00;99.90;;;;;;5013301;28;20060;-70
2024/01/29 11:03:37;;;;;;;17.48;8.95;;;6.70;99.90;;;;;;5011658;28;20056;-69
2024/01/29 11:06:17;;;;;;;16.15;9.02;;;6.10;99.90;;;;;;4999732;28;20462;-69
2024/01/29 11:08:47;;;;;;;15.98;8.88;;;6.10;99.90;;;;;;5011853;28;20116;-69
2024/01/29 11:11:13;;;;;;;15.50;8.75;;;6.10;99.90;;;;;;5015461;28;20400;-70
2024/01/29 11:13:40;;;;;;;16.73;8.65;;;6.10;99.90;;;;;;5011382;28;20073;-70
2024/01/29 11:16:09;;;;;;;19.10;8.93;;;6.10;99.90;;;;;;5013642;28;20053;-70
2024/01/29 11:18:35;;;;;;;18.15;9.73;;;6.10;99.90;;;;;;5014515;28;20049;-69
2024/01/29 11:21:01;;;;;;;18.23;9.43;;;6.20;99.90;;;;;;5014628;28;20410;-69
2024/01/29 11:23:30;;;;;;;16.13;8.80;;;6.20;99.90;;;;;;5016629;28;20049;-70
2024/01/29 11:26:00;;;;;;;15.52;9.48;;;6.20;99.90;;;;;;4999458;28;20555;-68
2024/01/29 11:28:26;;;;;;;19.83;9.80;;;6.30;99.90;;;;;;5016508;28;20053;-68
2024/01/29 11:30:53;;;;;;;18.75;9.43;;;6.30;99.90;;;;;;5014143;28;20422;-68
2024/01/29 11:33:20;;;;;;;21.27;11.68;;;6.40;99.90;;;;;;5015236;28;20144;-68
2024/01/29 11:35:49;;;;;;;15.88;9.75;;;6.50;99.90;;;;;;5025379;28;20053;-69
2024/01/29 11:38:23;;;;;;;17.00;10.10;;;6.60;99.90;;;;;;5000998;28;20045;-69
2024/01/29 11:40:49;;;;;;;19.63;10.60;;;6.50;99.90;;;;;;5011494;28;20136;-69
2024/01/29 11:43:17;;;;;;;23.20;11.05;;;6.50;99.90;;;;;;5016422;28;20132;-70
2024/01/29 11:45:53;;;;;;;21.08;10.75;;;6.70;99.90;;;;;;5017394;28;20120;-70
2024/01/29 11:48:21;;;;;;;23.63;11.45;;;6.70;99.90;;;;;;5010221;28;20076;-70
2024/01/29 11:50:55;;;;;;;25.10;11.65;;;6.70;99.90;;;;;;5016391;28;20056;-69
2024/01/29 11:53:25;;;;;;;26.73;12.68;;;6.80;99.90;;;;;;5015616;28;20049;-70
2024/01/29 11:55:52;;;;;;;22.65;11.05;;;6.80;99.90;;;;;;5017279;28;20045;-69
2024/01/29 11:58:22;;;;;;;24.45;12.20;;;6.90;99.90;;;;;;5003316;28;20042;-68
2024/01/29 12:00:50;;;;;;;27.58;11.82;;;6.90;99.90;;;;;;5017611;28;20059;-69
2024/01/29 12:03:23;;;;;;;26.50;12.88;;;7.00;99.90;;;;;;5002290;28;20525;-69
2024/01/29 12:05:51;;;;;;;28.63;12.20;;;7.00;99.90;;;;;;5003322;28;20038;-70
2024/01/29 12:08:18;;;;;;;26.73;12.52;;;7.00;99.90;;;;;;5015654;28;20049;-69
2024/01/29 12:10:46;;;;;;;27.33;12.75;;;7.60;99.90;;;;;;5015561;28;20053;-69
2024/01/29 12:13:13;;;;;;;26.95;12.05;;;7.10;99.90;;;;;;5001088;28;20659;-70
2024/01/29 12:15:39;;;;;;;27.95;13.15;;;7.10;99.90;;;;;;5016705;28;20041;-70
2024/01/29 12:18:09;;;;;;;28.80;12.27;;;7.10;99.90;;;;;;5019185;28;20502;-70
2024/01/29 12:20:37;;;;;;;33.40;13.00;;;7.10;99.90;;;;;;5000291;28;20269;-70
2024/01/29 12:23:03;;;;;;;29.95;12.85;;;7.70;99.90;;;;;;5014998;28;20430;-70
2024/01/29 12:25:29;;;;;;;30.20;13.75;;;7.20;99.90;;;;;;5018205;28;20081;-70
2024/01/29 12:28:03;;;;;;;35.60;13.30;;;7.20;99.90;;;;;;5016419;28;20411;-69
2024/01/29 12:30:31;;;;;;;31.05;14.45;;;7.20;99.90;;;;;;5003604;28;20047;-69
2024/01/29 12:32:57;;;;;;;33.80;13.65;;;7.20;99.90;;;;;;4996518;28;20034;-70
2024/01/29 12:35:31;;;;;;;29.63;13.50;;;7.20;99.90;;;;;;5016730;28;20054;-70
2024/01/29 12:38:08;;;;;;;33.08;14.52;;;7.40;99.90;;;;;;5015218;28;20052;-70
2024/01/29 12:40:34;;;;;;;31.52;14.60;;;7.20;99.90;;;;;;5017370;28;20049;-69
2024/01/29 12:43:01;;;;;;;32.95;13.52;;;7.30;99.90;;;;;;5017894;28;20681;-70
2024/01/29 12:45:27;;;;;;;34.75;14.23;;;7.30;99.90;;;;;;5002659;28;20450;-70